sensor_id;sensor_type;location;lat;lon;timestamp;P1;durP1;ratioP1;P2;durP2;ratioP2
61091;SDS011;46975;51.898;11.444;2022-08-01T00:01:03;4.90;;;3.15;;
61091;SDS011;46975;51.898;11.444;2022-08-01T00:03:29;5.88;;;3.65;;
61091;SDS011;46975;51.898;11.444;2022-08-01T00:05:54;3.90;;;3.47;;
61091;SDS011;46975;51.898;11.444;2022-08-01T00:08:20;4.82;;;3.63;;
61091;SDS011;46975;51.898;11.444;2022-08-01T00:10:45;3.78;;;3.47;;
61091;SDS011;46975;51.898;11.444;2022-08-01T00:13:11;5.90;;;3.65;;
61091;SDS011;46975;51.898;11.444;2022-08-01T00:15:37;3.80;;;3.50;;
61091;SDS011;46975;51.898;11.444;2022-08-01T00:18:02;4.60;;;3.78;;
61091;SDS011;46975;51.898;11.444;2022-08-01T00:20:28;3.90;;;3.33;;
61091;SDS011;46975;51.898;11.444;2022-08-01T00:22:53;5.38;;;4.22;;
61091;SDS011;46975;51.898;11.444;2022-08-01T00:25:19;4.40;;;4.00;;
61091;SDS011;46975;51.898;11.444;2022-08-01T00:27:45;5.90;;;3.80;;
61091;SDS011;46975;51.898;11.444;2022-08-01T00:30:10;6.85;;;3.83;;
61091;SDS011;46975;51.898;11.444;2022-08-01T00:32:36;5.03;;;3.92;;
61091;SDS011;46975;51.898;11.444;2022-08-01T00:35:01;5.32;;;3.67;;
61091;SDS011;46975;51.898;11.444;2022-08-01T00:37:27;6.32;;;3.30;;
61091;SDS011;46975;51.898;11.444;2022-08-01T00:39:53;4.93;;;3.58;;
61091;SDS011;46975;51.898;11.444;2022-08-01T00:42:18;5.35;;;3.13;;
61091;SDS011;46975;51.898;11.444;2022-08-01T00:44:44;6.43;;;3.60;;
61091;SDS011;46975;51.898;11.444;2022-08-01T00:47:10;3.45;;;3.15;;
61091;SDS011;46975;51.898;11.444;2022-08-01T00:49:35;5.97;;;3.50;;
61091;SDS011;46975;51.898;11.444;2022-08-01T00:52:02;5.63;;;3.33;;
61091;SDS011;46975;51.898;11.444;2022-08-01T00:54:29;3.10;;;2.80;;
61091;SDS011;46975;51.898;11.444;2022-08-01T00:56:55;3.55;;;3.25;;
61091;SDS011;46975;51.898;11.444;2022-08-01T00:59:22;3.63;;;3.08;;
61091;SDS011;46975;51.898;11.444;2022-08-01T01:01:48;3.30;;;3.00;;
61091;SDS011;46975;51.898;11.444;2022-08-01T01:04:14;4.18;;;2.55;;
61091;SDS011;46975;51.898;11.444;2022-08-01T01:12:28;4.53;;;3.47;;
61091;SDS011;46975;51.898;11.444;2022-08-01T01:15:04;3.97;;;2.95;;
61091;SDS011;46975;51.898;11.444;2022-08-01T01:17:33;3.10;;;2.90;;
61091;SDS011;46975;51.898;11.444;2022-08-01T01:28:11;7.32;;;3.40;;
61091;SDS011;46975;51.898;11.444;2022-08-01T01:30:41;4.22;;;3.55;;
61091;SDS011;46975;51.898;11.444;2022-08-01T01:33:09;6.50;;;3.00;;
61091;SDS011;46975;51.898;11.444;2022-08-01T01:35:40;5.68;;;3.33;;
61091;SDS011;46975;51.898;11.444;2022-08-01T01:38:14;3.78;;;3.47;;
61091;SDS011;46975;51.898;11.444;2022-08-01T01:40:46;3.88;;;3.17;;
61091;SDS011;46975;51.898;11.444;2022-08-01T01:43:13;3.50;;;2.70;;
61091;SDS011;46975;51.898;11.444;2022-08-01T01:45:40;3.83;;;2.97;;
61091;SDS011;46975;51.898;11.444;2022-08-01T01:48:09;2.92;;;2.72;;
61091;SDS011;46975;51.898;11.444;2022-08-01T01:50:37;3.22;;;2.65;;
61091;SDS011;46975;51.898;11.444;2022-08-01T01:53:04;4.60;;;2.50;;
61091;SDS011;46975;51.898;11.444;2022-08-01T01:55:31;3.50;;;2.95;;
61091;SDS011;46975;51.898;11.444;2022-08-01T01:57:59;5.88;;;2.80;;
61091;SDS011;46975;51.898;11.444;2022-08-01T02:00:25;3.33;;;2.58;;
61091;SDS011;46975;51.898;11.444;2022-08-01T02:02:53;2.17;;;1.83;;
61091;SDS011;46975;51.898;11.444;2022-08-01T02:05:20;3.67;;;2.05;;
61091;SDS011;46975;51.898;11.444;2022-08-01T02:07:46;2.63;;;2.10;;
61091;SDS011;46975;51.898;11.444;2022-08-01T02:10:14;3.28;;;2.97;;
61091;SDS011;46975;51.898;11.444;2022-08-01T02:15:10;2.50;;;2.30;;
61091;SDS011;46975;51.898;11.444;2022-08-01T02:17:39;3.40;;;3.10;;
61091;SDS011;46975;51.898;11.444;2022-08-01T02:20:09;2.80;;;2.20;;
61091;SDS011;46975;51.898;11.444;2022-08-01T02:22:58;3.42;;;2.00;;
61091;SDS011;46975;51.898;11.444;2022-08-01T02:25:26;3.00;;;2.17;;
61091;SDS011;46975;51.898;11.444;2022-08-01T02:27:59;3.05;;;2.47;;
61091;SDS011;46975;51.898;11.444;2022-08-01T02:30:33;2.40;;;2.20;;
61091;SDS011;46975;51.898;11.444;2022-08-01T02:33:08;2.28;;;2.08;;
61091;SDS011;46975;51.898;11.444;2022-08-01T02:35:40;2.25;;;2.05;;
61091;SDS011;46975;51.898;11.444;2022-08-01T02:38:09;3.03;;;2.72;;
61091;SDS011;46975;51.898;11.444;2022-08-01T02:40:37;2.83;;;1.88;;
61091;SDS011;46975;51.898;11.444;2022-08-01T02:43:05;2.25;;;2.10;;
61091;SDS011;46975;51.898;11.444;2022-08-01T02:45:33;2.28;;;2.08;;
61091;SDS011;46975;51.898;11.444;2022-08-01T02:50:31;2.67;;;2.38;;
61091;SDS011;46975;51.898;11.444;2022-08-01T02:52:58;2.53;;;2.33;;
61091;SDS011;46975;51.898;11.444;2022-08-01T02:55:26;3.42;;;2.53;;
61091;SDS011;46975;51.898;11.444;2022-08-01T02:57:54;2.38;;;2.17;;
61091;SDS011;46975;51.898;11.444;2022-08-01T03:00:21;2.60;;;2.40;;
61091;SDS011;46975;51.898;11.444;2022-08-01T03:02:48;2.35;;;2.03;;
61091;SDS011;46975;51.898;11.444;2022-08-01T03:05:16;2.58;;;2.38;;
61091;SDS011;46975;51.898;11.444;2022-08-01T03:07:42;4.00;;;3.17;;
61091;SDS011;46975;51.898;11.444;2022-08-01T03:10:08;5.68;;;3.10;;
61091;SDS011;46975;51.898;11.444;2022-08-01T03:12:36;3.47;;;2.47;;
61091;SDS011;46975;51.898;11.444;2022-08-01T03:15:03;3.28;;;2.58;;
61091;SDS011;46975;51.898;11.444;2022-08-01T03:17:31;4.93;;;2.13;;
61091;SDS011;46975;51.898;11.444;2022-08-01T03:19:58;2.40;;;2.20;;
61091;SDS011;46975;51.898;11.444;2022-08-01T03:22:27;4.82;;;2.20;;
61091;SDS011;46975;51.898;11.444;2022-08-01T03:24:55;2.40;;;2.20;;
61091;SDS011;46975;51.898;11.444;2022-08-01T03:27:24;2.92;;;2.65;;
61091;SDS011;46975;51.898;11.444;2022-08-01T03:29:50;2.33;;;2.13;;
61091;SDS011;46975;51.898;11.444;2022-08-01T03:32:17;2.42;;;2.00;;
61091;SDS011;46975;51.898;11.444;2022-08-01T03:34:44;2.58;;;2.20;;
61091;SDS011;46975;51.898;11.444;2022-08-01T03:37:17;2.65;;;2.45;;
61091;SDS011;46975;51.898;11.444;2022-08-01T03:40:06;3.03;;;2.25;;
61091;SDS011;46975;51.898;11.444;2022-08-01T03:42:36;2.70;;;2.28;;
61091;SDS011;46975;51.898;11.444;2022-08-01T03:45:10;2.60;;;2.05;;
61091;SDS011;46975;51.898;11.444;2022-08-01T03:47:44;3.75;;;2.25;;
61091;SDS011;46975;51.898;11.444;2022-08-01T03:50:11;4.05;;;1.77;;
61091;SDS011;46975;51.898;11.444;2022-08-01T03:52:39;1.58;;;1.48;;
61091;SDS011;46975;51.898;11.444;2022-08-01T03:55:08;4.10;;;1.70;;
61091;SDS011;46975;51.898;11.444;2022-08-01T03:57:36;1.30;;;1.20;;
61091;SDS011;46975;51.898;11.444;2022-08-01T04:00:03;1.95;;;1.77;;
61091;SDS011;46975;51.898;11.444;2022-08-01T04:02:34;2.15;;;1.52;;
61091;SDS011;46975;51.898;11.444;2022-08-01T04:05:00;10.60;;;1.92;;
61091;SDS011;46975;51.898;11.444;2022-08-01T04:07:27;5.05;;;1.73;;
61091;SDS011;46975;51.898;11.444;2022-08-01T04:09:54;3.33;;;1.42;;
61091;SDS011;46975;51.898;11.444;2022-08-01T04:12:20;1.63;;;1.30;;
61091;SDS011;46975;51.898;11.444;2022-08-01T04:14:46;3.22;;;1.40;;
61091;SDS011;46975;51.898;11.444;2022-08-01T04:17:12;3.38;;;1.63;;
61091;SDS011;46975;51.898;11.444;2022-08-01T04:19:38;2.13;;;1.63;;
61091;SDS011;46975;51.898;11.444;2022-08-01T04:22:04;2.95;;;1.92;;
61091;SDS011;46975;51.898;11.444;2022-08-01T04:24:30;4.03;;;1.40;;
61091;SDS011;46975;51.898;11.444;2022-08-01T04:26:58;1.80;;;1.60;;
61091;SDS011;46975;51.898;11.444;2022-08-01T04:29:26;2.50;;;1.50;;
61091;SDS011;46975;51.898;11.444;2022-08-01T04:31:55;3.10;;;1.70;;
61091;SDS011;46975;51.898;11.444;2022-08-01T04:34:23;2.30;;;1.52;;
61091;SDS011;46975;51.898;11.444;2022-08-01T04:36:51;4.22;;;1.55;;
61091;SDS011;46975;51.898;11.444;2022-08-01T04:39:19;2.67;;;1.38;;
61091;SDS011;46975;51.898;11.444;2022-08-01T04:41:48;1.65;;;1.52;;
61091;SDS011;46975;51.898;11.444;2022-08-01T04:44:15;3.40;;;1.50;;
61091;SDS011;46975;51.898;11.444;2022-08-01T04:46:41;3.42;;;1.80;;
61091;SDS011;46975;51.898;11.444;2022-08-01T04:49:08;2.38;;;1.95;;
61091;SDS011;46975;51.898;11.444;2022-08-01T04:51:37;4.82;;;1.50;;
61091;SDS011;46975;51.898;11.444;2022-08-01T04:54:22;2.20;;;1.58;;
61091;SDS011;46975;51.898;11.444;2022-08-01T04:56:49;3.42;;;1.48;;
61091;SDS011;46975;51.898;11.444;2022-08-01T04:59:15;5.65;;;1.92;;
61091;SDS011;46975;51.898;11.444;2022-08-01T05:01:59;1.80;;;1.60;;
61091;SDS011;46975;51.898;11.444;2022-08-01T05:04:25;3.53;;;1.92;;
61091;SDS011;46975;51.898;11.444;2022-08-01T05:06:50;3.13;;;1.73;;
61091;SDS011;46975;51.898;11.444;2022-08-01T05:09:17;1.60;;;1.45;;
61091;SDS011;46975;51.898;11.444;2022-08-01T05:11:43;4.05;;;1.73;;
61091;SDS011;46975;51.898;11.444;2022-08-01T05:14:08;3.88;;;1.83;;
61091;SDS011;46975;51.898;11.444;2022-08-01T05:16:34;2.88;;;2.13;;
61091;SDS011;46975;51.898;11.444;2022-08-01T05:19:00;5.28;;;2.03;;
61091;SDS011;46975;51.898;11.444;2022-08-01T05:21:27;3.28;;;1.85;;
61091;SDS011;46975;51.898;11.444;2022-08-01T05:23:53;3.08;;;2.00;;
61091;SDS011;46975;51.898;11.444;2022-08-01T05:26:18;3.08;;;1.70;;
61091;SDS011;46975;51.898;11.444;2022-08-01T05:28:44;2.47;;;2.13;;
61091;SDS011;46975;51.898;11.444;2022-08-01T05:31:09;2.25;;;1.67;;
61091;SDS011;46975;51.898;11.444;2022-08-01T05:33:35;4.47;;;1.40;;
61091;SDS011;46975;51.898;11.444;2022-08-01T05:36:02;1.73;;;1.63;;
61091;SDS011;46975;51.898;11.444;2022-08-01T05:38:28;2.70;;;2.05;;
61091;SDS011;46975;51.898;11.444;2022-08-01T05:40:53;2.58;;;1.40;;
61091;SDS011;46975;51.898;11.444;2022-08-01T05:43:19;1.42;;;1.15;;
61091;SDS011;46975;51.898;11.444;2022-08-01T05:45:45;1.50;;;1.27;;
61091;SDS011;46975;51.898;11.444;2022-08-01T05:48:10;1.20;;;1.10;;
61091;SDS011;46975;51.898;11.444;2022-08-01T05:50:36;2.65;;;1.60;;
61091;SDS011;46975;51.898;11.444;2022-08-01T05:53:02;6.72;;;1.80;;
61091;SDS011;46975;51.898;11.444;2022-08-01T05:55:27;3.50;;;1.60;;
61091;SDS011;46975;51.898;11.444;2022-08-01T05:57:53;1.80;;;1.70;;
61091;SDS011;46975;51.898;11.444;2022-08-01T06:00:19;2.97;;;1.77;;
61091;SDS011;46975;51.898;11.444;2022-08-01T06:02:45;3.53;;;1.75;;
61091;SDS011;46975;51.898;11.444;2022-08-01T06:05:11;2.80;;;1.70;;
61091;SDS011;46975;51.898;11.444;2022-08-01T06:07:36;6.78;;;2.35;;
61091;SDS011;46975;51.898;11.444;2022-08-01T06:10:03;3.10;;;2.10;;
61091;SDS011;46975;51.898;11.444;2022-08-01T06:12:31;2.75;;;2.00;;
61091;SDS011;46975;51.898;11.444;2022-08-01T06:14:58;3.83;;;2.55;;
61091;SDS011;46975;51.898;11.444;2022-08-01T06:17:24;2.88;;;2.65;;
61091;SDS011;46975;51.898;11.444;2022-08-01T06:19:50;3.13;;;2.75;;
61091;SDS011;46975;51.898;11.444;2022-08-01T06:22:16;2.70;;;2.50;;
61091;SDS011;46975;51.898;11.444;2022-08-01T06:24:41;3.88;;;2.40;;
61091;SDS011;46975;51.898;11.444;2022-08-01T06:27:07;3.30;;;1.63;;
61091;SDS011;46975;51.898;11.444;2022-08-01T06:29:32;1.80;;;1.70;;
61091;SDS011;46975;51.898;11.444;2022-08-01T06:31:59;1.83;;;1.67;;
61091;SDS011;46975;51.898;11.444;2022-08-01T06:34:25;2.22;;;2.03;;
61091;SDS011;46975;51.898;11.444;2022-08-01T06:36:51;1.67;;;1.58;;
61091;SDS011;46975;51.898;11.444;2022-08-01T06:39:17;2.28;;;1.98;;
61091;SDS011;46975;51.898;11.444;2022-08-01T06:41:42;4.07;;;2.10;;
61091;SDS011;46975;51.898;11.444;2022-08-01T06:44:11;2.83;;;1.85;;
61091;SDS011;46975;51.898;11.444;2022-08-01T06:46:37;3.17;;;2.00;;
61091;SDS011;46975;51.898;11.444;2022-08-01T06:49:03;2.30;;;2.10;;
61091;SDS011;46975;51.898;11.444;2022-08-01T06:51:28;27.48;;;7.65;;
61091;SDS011;46975;51.898;11.444;2022-08-01T06:53:54;2.85;;;2.08;;
61091;SDS011;46975;51.898;11.444;2022-08-01T06:56:20;3.83;;;2.58;;
61091;SDS011;46975;51.898;11.444;2022-08-01T06:58:45;1.80;;;1.65;;
61091;SDS011;46975;51.898;11.444;2022-08-01T07:01:11;2.20;;;1.75;;
61091;SDS011;46975;51.898;11.444;2022-08-01T07:03:37;2.20;;;1.80;;
61091;SDS011;46975;51.898;11.444;2022-08-01T07:06:03;3.05;;;2.42;;
61091;SDS011;46975;51.898;11.444;2022-08-01T07:08:29;4.70;;;2.70;;
61091;SDS011;46975;51.898;11.444;2022-08-01T07:10:54;5.50;;;2.60;;
61091;SDS011;46975;51.898;11.444;2022-08-01T07:13:24;4.22;;;3.13;;
61091;SDS011;46975;51.898;11.444;2022-08-01T07:18:18;9.15;;;2.50;;
61091;SDS011;46975;51.898;11.444;2022-08-01T07:20:44;14.25;;;6.78;;
61091;SDS011;46975;51.898;11.444;2022-08-01T07:23:11;13.18;;;7.50;;
61091;SDS011;46975;51.898;11.444;2022-08-01T07:25:37;8.40;;;3.45;;
61091;SDS011;46975;51.898;11.444;2022-08-01T07:28:03;7.93;;;3.80;;
61091;SDS011;46975;51.898;11.444;2022-08-01T07:30:29;2.53;;;2.30;;
61091;SDS011;46975;51.898;11.444;2022-08-01T07:32:55;2.00;;;1.75;;
61091;SDS011;46975;51.898;11.444;2022-08-01T07:35:21;2.97;;;1.55;;
61091;SDS011;46975;51.898;11.444;2022-08-01T07:37:46;1.38;;;1.27;;
61091;SDS011;46975;51.898;11.444;2022-08-01T07:40:12;3.00;;;1.60;;
61091;SDS011;46975;51.898;11.444;2022-08-01T07:42:38;2.35;;;2.00;;
61091;SDS011;46975;51.898;11.444;2022-08-01T07:45:03;3.17;;;2.55;;
61091;SDS011;46975;51.898;11.444;2022-08-01T07:47:29;3.53;;;1.98;;
61091;SDS011;46975;51.898;11.444;2022-08-01T07:50:05;2.13;;;1.88;;
61091;SDS011;46975;51.898;11.444;2022-08-01T07:52:31;2.88;;;2.22;;
61091;SDS011;46975;51.898;11.444;2022-08-01T07:54:57;2.20;;;1.83;;
61091;SDS011;46975;51.898;11.444;2022-08-01T07:57:23;2.60;;;2.40;;
61091;SDS011;46975;51.898;11.444;2022-08-01T07:59:50;3.05;;;2.75;;
61091;SDS011;46975;51.898;11.444;2022-08-01T08:02:16;3.53;;;2.40;;
61091;SDS011;46975;51.898;11.444;2022-08-01T08:04:41;2.90;;;2.67;;
61091;SDS011;46975;51.898;11.444;2022-08-01T08:07:07;6.63;;;2.83;;
61091;SDS011;46975;51.898;11.444;2022-08-01T08:09:33;2.97;;;2.65;;
61091;SDS011;46975;51.898;11.444;2022-08-01T08:11:59;2.50;;;2.30;;
61091;SDS011;46975;51.898;11.444;2022-08-01T08:14:24;3.75;;;2.63;;
61091;SDS011;46975;51.898;11.444;2022-08-01T08:16:50;4.15;;;3.08;;
61091;SDS011;46975;51.898;11.444;2022-08-01T08:19:16;3.20;;;2.90;;
61091;SDS011;46975;51.898;11.444;2022-08-01T08:21:42;2.92;;;2.60;;
61091;SDS011;46975;51.898;11.444;2022-08-01T08:24:09;3.50;;;2.78;;
61091;SDS011;46975;51.898;11.444;2022-08-01T08:26:44;3.70;;;3.22;;
61091;SDS011;46975;51.898;11.444;2022-08-01T08:29:11;3.90;;;2.50;;
61091;SDS011;46975;51.898;11.444;2022-08-01T08:31:37;3.88;;;2.70;;
61091;SDS011;46975;51.898;11.444;2022-08-01T08:34:03;2.47;;;2.20;;
61091;SDS011;46975;51.898;11.444;2022-08-01T08:36:29;3.20;;;1.70;;
61091;SDS011;46975;51.898;11.444;2022-08-01T08:38:55;2.13;;;1.80;;
61091;SDS011;46975;51.898;11.444;2022-08-01T08:41:21;2.20;;;1.90;;
61091;SDS011;46975;51.898;11.444;2022-08-01T08:43:47;1.98;;;1.13;;
61091;SDS011;46975;51.898;11.444;2022-08-01T08:46:13;2.67;;;1.52;;
61091;SDS011;46975;51.898;11.444;2022-08-01T08:48:40;4.97;;;2.30;;
61091;SDS011;46975;51.898;11.444;2022-08-01T08:51:07;3.05;;;1.88;;
61091;SDS011;46975;51.898;11.444;2022-08-01T08:53:36;1.90;;;1.63;;
61091;SDS011;46975;51.898;11.444;2022-08-01T08:56:03;2.92;;;1.70;;
61091;SDS011;46975;51.898;11.444;2022-08-01T08:58:32;1.20;;;1.10;;
61091;SDS011;46975;51.898;11.444;2022-08-01T09:01:03;6.07;;;1.52;;
61091;SDS011;46975;51.898;11.444;2022-08-01T09:05:56;2.22;;;1.27;;
61091;SDS011;46975;51.898;11.444;2022-08-01T09:08:22;2.00;;;1.52;;
61091;SDS011;46975;51.898;11.444;2022-08-01T09:10:48;5.47;;;1.38;;
61091;SDS011;46975;51.898;11.444;2022-08-01T09:13:14;3.67;;;1.60;;
61091;SDS011;46975;51.898;11.444;2022-08-01T09:18:32;2.30;;;1.27;;
61091;SDS011;46975;51.898;11.444;2022-08-01T09:23:33;1.60;;;1.20;;
61091;SDS011;46975;51.898;11.444;2022-08-01T09:26:11;2.08;;;1.02;;
61091;SDS011;46975;51.898;11.444;2022-08-01T09:28:40;3.13;;;1.50;;
61091;SDS011;46975;51.898;11.444;2022-08-01T09:31:13;0.93;;;0.90;;
61091;SDS011;46975;51.898;11.444;2022-08-01T09:33:54;1.27;;;0.82;;
61091;SDS011;46975;51.898;11.444;2022-08-01T09:36:25;1.00;;;1.00;;
61091;SDS011;46975;51.898;11.444;2022-08-01T09:39:11;0.88;;;0.75;;
61091;SDS011;46975;51.898;11.444;2022-08-01T09:41:38;0.75;;;0.75;;
61091;SDS011;46975;51.898;11.444;2022-08-01T09:44:04;0.85;;;0.80;;
61091;SDS011;46975;51.898;11.444;2022-08-01T09:46:30;1.30;;;0.70;;
61091;SDS011;46975;51.898;11.444;2022-08-01T09:51:33;2.42;;;0.63;;
61091;SDS011;46975;51.898;11.444;2022-08-01T09:54:03;0.65;;;0.65;;
61091;SDS011;46975;51.898;11.444;2022-08-01T09:56:40;0.75;;;0.70;;
61091;SDS011;46975;51.898;11.444;2022-08-01T09:59:08;0.77;;;0.77;;
61091;SDS011;46975;51.898;11.444;2022-08-01T10:04:14;1.65;;;1.00;;
61091;SDS011;46975;51.898;11.444;2022-08-01T10:06:42;2.03;;;1.10;;
61091;SDS011;46975;51.898;11.444;2022-08-01T10:09:10;1.40;;;1.30;;
61091;SDS011;46975;51.898;11.444;2022-08-01T10:11:39;3.17;;;1.90;;
61091;SDS011;46975;51.898;11.444;2022-08-01T10:14:07;2.92;;;1.98;;
61091;SDS011;46975;51.898;11.444;2022-08-01T10:16:33;1.60;;;1.50;;
61091;SDS011;46975;51.898;11.444;2022-08-01T10:19:02;0.82;;;0.82;;
61091;SDS011;46975;51.898;11.444;2022-08-01T10:21:30;4.95;;;1.40;;
61091;SDS011;46975;51.898;11.444;2022-08-01T10:24:01;1.30;;;0.95;;
61091;SDS011;46975;51.898;11.444;2022-08-01T10:26:29;1.00;;;0.90;;
61091;SDS011;46975;51.898;11.444;2022-08-01T10:28:58;3.05;;;1.00;;
61091;SDS011;46975;51.898;11.444;2022-08-01T10:31:24;0.93;;;0.93;;
61091;SDS011;46975;51.898;11.444;2022-08-01T10:33:50;0.85;;;0.85;;
61091;SDS011;46975;51.898;11.444;2022-08-01T10:36:18;1.63;;;0.98;;
61091;SDS011;46975;51.898;11.444;2022-08-01T10:38:45;0.88;;;0.88;;
61091;SDS011;46975;51.898;11.444;2022-08-01T10:41:11;1.33;;;0.90;;
61091;SDS011;46975;51.898;11.444;2022-08-01T10:43:40;1.40;;;1.20;;
61091;SDS011;46975;51.898;11.444;2022-08-01T10:46:06;0.75;;;0.75;;
61091;SDS011;46975;51.898;11.444;2022-08-01T10:48:41;1.38;;;1.27;;
61091;SDS011;46975;51.898;11.444;2022-08-01T10:51:21;1.35;;;1.25;;
61091;SDS011;46975;51.898;11.444;2022-08-01T10:53:52;1.55;;;1.45;;
61091;SDS011;46975;51.898;11.444;2022-08-01T10:56:19;1.48;;;1.00;;
61091;SDS011;46975;51.898;11.444;2022-08-01T10:58:46;2.75;;;1.45;;
61091;SDS011;46975;51.898;11.444;2022-08-01T11:09:00;1.50;;;1.13;;
61091;SDS011;46975;51.898;11.444;2022-08-01T11:11:30;1.67;;;1.17;;
61091;SDS011;46975;51.898;11.444;2022-08-01T11:14:05;2.53;;;1.23;;
61091;SDS011;46975;51.898;11.444;2022-08-01T11:16:38;1.00;;;0.90;;
61091;SDS011;46975;51.898;11.444;2022-08-01T11:19:05;0.85;;;0.85;;
61091;SDS011;46975;51.898;11.444;2022-08-01T11:27:17;1.23;;;1.13;;
61091;SDS011;46975;51.898;11.444;2022-08-01T11:32:50;1.38;;;1.25;;
61091;SDS011;46975;51.898;11.444;2022-08-01T11:35:23;2.35;;;1.40;;
61091;SDS011;46975;51.898;11.444;2022-08-01T11:37:51;2.00;;;1.40;;
61091;SDS011;46975;51.898;11.444;2022-08-01T11:40:21;2.15;;;1.30;;
61091;SDS011;46975;51.898;11.444;2022-08-01T11:42:49;2.10;;;1.90;;
61091;SDS011;46975;51.898;11.444;2022-08-01T11:45:48;2.35;;;2.15;;
61091;SDS011;46975;51.898;11.444;2022-08-01T11:48:20;2.45;;;2.25;;
61091;SDS011;46975;51.898;11.444;2022-08-01T11:50:47;2.30;;;2.20;;
61091;SDS011;46975;51.898;11.444;2022-08-01T11:53:15;8.75;;;2.17;;
61091;SDS011;46975;51.898;11.444;2022-08-01T11:55:47;2.50;;;2.30;;
61091;SDS011;46975;51.898;11.444;2022-08-01T11:58:15;2.90;;;1.73;;
61091;SDS011;46975;51.898;11.444;2022-08-01T12:00:55;2.13;;;2.00;;
61091;SDS011;46975;51.898;11.444;2022-08-01T12:03:23;3.92;;;2.20;;
61091;SDS011;46975;51.898;11.444;2022-08-01T12:05:51;2.85;;;2.10;;
61091;SDS011;46975;51.898;11.444;2022-08-01T12:08:27;2.22;;;1.80;;
61091;SDS011;46975;51.898;11.444;2022-08-01T12:10:54;1.90;;;1.80;;
61091;SDS011;46975;51.898;11.444;2022-08-01T12:13:20;1.60;;;1.50;;
61091;SDS011;46975;51.898;11.444;2022-08-01T12:15:46;2.03;;;1.70;;
61091;SDS011;46975;51.898;11.444;2022-08-01T12:18:13;3.22;;;1.70;;
61091;SDS011;46975;51.898;11.444;2022-08-01T12:20:39;3.70;;;1.73;;
61091;SDS011;46975;51.898;11.444;2022-08-01T12:23:09;2.10;;;1.85;;
61091;SDS011;46975;51.898;11.444;2022-08-01T12:25:36;2.30;;;1.55;;
61091;SDS011;46975;51.898;11.444;2022-08-01T12:28:05;3.67;;;1.77;;
61091;SDS011;46975;51.898;11.444;2022-08-01T12:30:33;1.50;;;1.40;;
61091;SDS011;46975;51.898;11.444;2022-08-01T12:33:00;1.90;;;1.50;;
61091;SDS011;46975;51.898;11.444;2022-08-01T12:35:28;4.50;;;1.42;;
61091;SDS011;46975;51.898;11.444;2022-08-01T12:37:55;4.85;;;1.27;;
61091;SDS011;46975;51.898;11.444;2022-08-01T12:40:30;1.17;;;1.10;;
61091;SDS011;46975;51.898;11.444;2022-08-01T12:42:58;1.20;;;0.98;;
61091;SDS011;46975;51.898;11.444;2022-08-01T12:45:49;1.40;;;0.90;;
61091;SDS011;46975;51.898;11.444;2022-08-01T12:48:14;1.47;;;0.90;;
61091;SDS011;46975;51.898;11.444;2022-08-01T12:50:42;2.13;;;0.90;;
61091;SDS011;46975;51.898;11.444;2022-08-01T12:53:10;1.85;;;1.25;;
61091;SDS011;46975;51.898;11.444;2022-08-01T12:55:45;3.58;;;1.10;;
61091;SDS011;46975;51.898;11.444;2022-08-01T12:58:16;1.27;;;0.82;;
61091;SDS011;46975;51.898;11.444;2022-08-01T13:00:43;3.55;;;2.30;;
61091;SDS011;46975;51.898;11.444;2022-08-01T13:03:18;3.30;;;1.40;;
61091;SDS011;46975;51.898;11.444;2022-08-01T13:05:49;1.67;;;1.30;;
61091;SDS011;46975;51.898;11.444;2022-08-01T13:10:48;2.30;;;1.40;;
61091;SDS011;46975;51.898;11.444;2022-08-01T13:13:15;2.28;;;1.52;;
61091;SDS011;46975;51.898;11.444;2022-08-01T13:15:43;1.17;;;1.17;;
61091;SDS011;46975;51.898;11.444;2022-08-01T13:18:28;1.38;;;1.27;;
61091;SDS011;46975;51.898;11.444;2022-08-01T13:21:14;1.17;;;1.00;;
61091;SDS011;46975;51.898;11.444;2022-08-01T13:23:42;11.38;;;1.38;;
61091;SDS011;46975;51.898;11.444;2022-08-01T13:26:45;2.25;;;0.98;;
61091;SDS011;46975;51.898;11.444;2022-08-01T13:29:14;0.93;;;0.93;;
61091;SDS011;46975;51.898;11.444;2022-08-01T13:31:44;1.02;;;0.90;;
61091;SDS011;46975;51.898;11.444;2022-08-01T13:34:10;3.10;;;1.10;;
61091;SDS011;46975;51.898;11.444;2022-08-01T13:36:36;1.30;;;0.90;;
61091;SDS011;46975;51.898;11.444;2022-08-01T13:39:03;1.33;;;1.23;;
61091;SDS011;46975;51.898;11.444;2022-08-01T13:41:47;1.77;;;1.50;;
61091;SDS011;46975;51.898;11.444;2022-08-01T13:44:13;1.75;;;1.40;;
61091;SDS011;46975;51.898;11.444;2022-08-01T13:46:40;1.70;;;1.00;;
61091;SDS011;46975;51.898;11.444;2022-08-01T13:49:08;1.38;;;1.30;;
61091;SDS011;46975;51.898;11.444;2022-08-01T13:51:35;13.30;;;3.00;;
61091;SDS011;46975;51.898;11.444;2022-08-01T13:54:02;4.80;;;1.55;;
61091;SDS011;46975;51.898;11.444;2022-08-01T13:56:27;5.97;;;1.25;;
61091;SDS011;46975;51.898;11.444;2022-08-01T13:58:54;1.45;;;0.90;;
61091;SDS011;46975;51.898;11.444;2022-08-01T14:01:20;2.03;;;1.10;;
61091;SDS011;46975;51.898;11.444;2022-08-01T14:03:46;7.65;;;1.30;;
61091;SDS011;46975;51.898;11.444;2022-08-01T14:06:12;3.05;;;1.20;;
61091;SDS011;46975;51.898;11.444;2022-08-01T14:08:40;5.55;;;1.45;;
61091;SDS011;46975;51.898;11.444;2022-08-01T14:11:07;3.15;;;1.42;;
61091;SDS011;46975;51.898;11.444;2022-08-01T14:13:32;2.15;;;0.90;;
61091;SDS011;46975;51.898;11.444;2022-08-01T14:15:58;2.65;;;0.77;;
61091;SDS011;46975;51.898;11.444;2022-08-01T14:18:24;0.93;;;0.90;;
61091;SDS011;46975;51.898;11.444;2022-08-01T14:20:50;1.48;;;0.95;;
61091;SDS011;46975;51.898;11.444;2022-08-01T14:23:16;1.67;;;1.00;;
61091;SDS011;46975;51.898;11.444;2022-08-01T14:25:42;2.38;;;0.80;;
61091;SDS011;46975;51.898;11.444;2022-08-01T14:28:08;2.97;;;0.70;;
61091;SDS011;46975;51.898;11.444;2022-08-01T14:30:35;0.70;;;0.63;;
61091;SDS011;46975;51.898;11.444;2022-08-01T14:33:01;0.73;;;0.73;;
61091;SDS011;46975;51.898;11.444;2022-08-01T14:35:26;0.60;;;0.60;;
61091;SDS011;46975;51.898;11.444;2022-08-01T14:37:52;0.93;;;0.93;;
61091;SDS011;46975;51.898;11.444;2022-08-01T14:40:18;0.90;;;0.90;;
61091;SDS011;46975;51.898;11.444;2022-08-01T14:42:43;1.60;;;1.10;;
61091;SDS011;46975;51.898;11.444;2022-08-01T14:45:09;1.10;;;1.00;;
61091;SDS011;46975;51.898;11.444;2022-08-01T14:47:37;3.08;;;1.10;;
61091;SDS011;46975;51.898;11.444;2022-08-01T14:50:05;1.85;;;1.35;;
61091;SDS011;46975;51.898;11.444;2022-08-01T14:52:32;1.10;;;1.00;;
61091;SDS011;46975;51.898;11.444;2022-08-01T14:54:59;2.85;;;0.95;;
61091;SDS011;46975;51.898;11.444;2022-08-01T14:57:24;0.88;;;0.85;;
61091;SDS011;46975;51.898;11.444;2022-08-01T14:59:50;3.20;;;1.05;;
61091;SDS011;46975;51.898;11.444;2022-08-01T15:02:16;2.08;;;1.17;;
61091;SDS011;46975;51.898;11.444;2022-08-01T15:04:42;0.98;;;0.77;;
61091;SDS011;46975;51.898;11.444;2022-08-01T15:07:09;1.77;;;0.90;;
61091;SDS011;46975;51.898;11.444;2022-08-01T15:09:35;1.38;;;0.57;;
61091;SDS011;46975;51.898;11.444;2022-08-01T15:12:01;2.40;;;0.80;;
61091;SDS011;46975;51.898;11.444;2022-08-01T15:14:27;1.40;;;0.60;;
61091;SDS011;46975;51.898;11.444;2022-08-01T15:17:11;0.82;;;0.77;;
61091;SDS011;46975;51.898;11.444;2022-08-01T15:19:37;1.20;;;0.88;;
61091;SDS011;46975;51.898;11.444;2022-08-01T15:22:03;2.72;;;0.70;;
61091;SDS011;46975;51.898;11.444;2022-08-01T15:24:30;1.45;;;0.60;;
61091;SDS011;46975;51.898;11.444;2022-08-01T15:26:55;0.80;;;0.47;;
61091;SDS011;46975;51.898;11.444;2022-08-01T15:29:21;3.30;;;0.60;;
61091;SDS011;46975;51.898;11.444;2022-08-01T15:31:46;0.50;;;0.50;;